Time;durP1;ratioP1;P1;durP2;ratioP2;P2;SDS_P1;SDS_P2;PMS_P1;PMS_P2;Temp;Humidity;BMP_temperature;BMP_pressure;BME280_temperature;BME280_humidity;BME280_pressure;Samples;Min_cycle;Max_cycle;Signal;HPM_P1;HPM_P2
2022/06/20 00:01:57;;;;;;;3.30;3.05;;;;;;;19.70;71.33;101189.94;5017595;28;102024;-49
2022/06/20 00:04:27;;;;;;;3.70;3.40;;;;;;;19.70;71.19;101188.00;5018538;28;102317;-47
2022/06/20 00:06:55;;;;;;;3.60;3.25;;;;;;;19.70;71.21;101179.72;5023840;28;102429;-49
2022/06/20 00:09:25;;;;;;;3.38;3.08;;;;;;;19.68;71.13;101168.16;5036843;28;104038;-49
2022/06/20 00:11:52;;;;;;;3.40;3.10;;;;;;;19.69;71.28;101167.06;5035182;28;102254;-49
2022/06/20 00:14:21;;;;;;;3.10;2.85;;;;;;;19.69;71.06;101178.09;5018113;28;102300;-48
2022/06/20 00:16:51;;;;;;;4.15;3.33;;;;;;;19.70;70.73;101174.19;5019761;28;102389;-49
2022/06/20 00:19:17;;;;;;;3.28;2.97;;;;;;;19.70;71.09;101179.72;5016945;28;103985;-49
2022/06/20 00:21:44;;;;;;;3.22;2.92;;;;;;;19.69;71.00;101175.34;5017715;28;102114;-49
2022/06/20 00:24:12;;;;;;;3.33;3.03;;;;;;;19.68;71.13;101171.75;5017388;28;102494;-48
2022/06/20 00:26:40;;;;;;;3.67;3.03;;;;;;;19.69;71.07;101164.28;5017308;28;102268;-48
2022/06/20 00:29:08;;;;;;;4.07;2.80;;;;;;;19.69;71.13;101158.78;5035146;28;104365;-49
2022/06/20 00:31:35;;;;;;;3.53;3.22;;;;;;;19.67;71.18;101158.25;5038209;28;102190;-49
2022/06/20 00:34:02;;;;;;;3.60;3.30;;;;;;;19.67;71.42;101159.06;5030856;28;102176;-49
2022/06/20 00:36:30;;;;;;;2.88;2.60;;;;;;;19.68;70.96;101155.16;5025852;28;102447;-51
2022/06/20 00:38:56;;;;;;;3.20;3.00;;;;;;;19.69;71.24;101161.53;5025039;28;104022;-48
2022/06/20 00:41:28;;;;;;;3.33;3.03;;;;;;;19.69;71.02;101150.50;5037882;28;102372;-48
2022/06/20 00:43:55;;;;;;;3.35;3.10;;;;;;;19.68;70.81;101148.84;5036516;28;102549;-49
2022/06/20 00:46:29;;;;;;;3.55;3.05;;;;;;;19.68;70.83;101144.13;5038730;28;102123;-49
2022/06/20 00:49:02;;;;;;;5.05;2.95;;;;;;;19.68;70.91;101149.66;5037347;28;104059;-48
2022/06/20 00:51:35;;;;;;;3.10;2.90;;;;;;;19.69;70.88;101150.50;5025671;28;102278;-49
2022/06/20 00:54:08;;;;;;;3.45;3.15;;;;;;;19.68;70.99;101143.31;5022135;28;102017;-49
2022/06/20 00:56:43;;;;;;;3.28;2.97;;;;;;;19.68;70.97;101149.66;5029834;28;102534;-48
2022/06/20 00:59:14;;;;;;;3.33;3.13;;;;;;;19.67;71.05;101141.69;5034491;28;104034;-49
2022/06/20 01:01:42;;;;;;;3.53;3.22;;;;;;;19.67;70.88;101141.69;5027889;28;101951;-49
2022/06/20 01:04:14;;;;;;;3.40;3.20;;;;;;;19.67;70.95;101139.75;5031582;28;102163;-49
2022/06/20 01:06:47;;;;;;;3.22;3.03;;;;;;;19.66;70.99;101123.50;5018066;28;102293;-48
2022/06/20 01:09:18;;;;;;;3.50;3.20;;;;;;;19.66;70.83;101127.09;5015928;28;103956;-49
2022/06/20 01:11:50;;;;;;;3.08;2.83;;;;;;;19.65;71.38;101127.38;5031228;28;102742;-49
2022/06/20 01:14:22;;;;;;;3.30;3.00;;;;;;;19.66;71.12;101134.56;5020038;28;102312;-49
2022/06/20 01:16:52;;;;;;;4.85;3.28;;;;;;;19.66;70.90;101123.50;5033666;28;102551;-49
2022/06/20 01:19:33;;;;;;;3.40;3.10;;;;;;;19.67;70.86;101125.13;5035933;28;108147;-49
2022/06/20 01:22:08;;;;;;;3.65;3.33;;;;;;;19.66;71.11;101135.38;5022834;28;102499;-49
2022/06/20 01:24:46;;;;;;;3.70;3.40;;;;;;;19.66;70.86;101134.56;5030245;28;102306;-50
2022/06/20 01:27:20;;;;;;;3.63;3.33;;;;;;;19.67;70.80;101138.94;5035175;28;103013;-49
2022/06/20 01:29:47;;;;;;;3.55;3.25;;;;;;;19.66;70.78;101134.56;5028156;28;104140;-49
2022/06/20 01:32:14;;;;;;;3.42;3.13;;;;;;;19.66;71.00;101129.03;5016640;28;102183;-49
2022/06/20 01:34:41;;;;;;;3.90;3.50;;;;;;;19.67;70.84;101123.19;5016342;28;102144;-49
2022/06/20 01:37:25;;;;;;;3.75;3.45;;;;;;;19.67;70.60;101125.13;5017442;28;102150;-49
2022/06/20 01:39:56;;;;;;;3.70;3.40;;;;;;;19.66;70.62;101129.84;5019192;28;104005;-49
2022/06/20 01:42:27;;;;;;;5.10;3.60;;;;;;;19.66;70.84;101132.59;5015625;28;102270;-48
2022/06/20 01:45:00;;;;;;;3.67;3.38;;;;;;;19.67;70.86;101122.38;5016107;28;102056;-48
2022/06/20 01:47:27;;;;;;;3.72;3.42;;;;;;;19.67;70.78;101125.13;5016818;28;101997;-49
2022/06/20 01:49:56;;;;;;;3.42;3.13;;;;;;;19.66;70.76;101129.84;5015553;28;103902;-48
2022/06/20 01:52:28;;;;;;;3.60;3.30;;;;;;;19.66;70.57;101126.28;5016626;28;102311;-49
2022/06/20 01:54:59;;;;;;;3.92;3.60;;;;;;;19.66;70.88;101129.03;5029241;28;102055;-49
2022/06/20 01:57:31;;;;;;;3.65;3.35;;;;;;;19.66;70.83;101134.56;5030515;28;101961;-48
2022/06/20 02:00:02;;;;;;;3.67;3.38;;;;;;;19.66;70.83;101140.09;5015263;28;104485;-49
2022/06/20 02:02:33;;;;;;;4.10;3.70;;;;;;;19.65;70.69;101127.38;5035998;28;102034;-49
2022/06/20 02:05:04;;;;;;;4.50;3.85;;;;;;;19.66;70.69;101134.56;5023234;27;103570;-49
2022/06/20 02:07:31;;;;;;;3.80;3.50;;;;;;;19.66;70.73;101146.41;5017898;28;102290;-49
2022/06/20 02:09:59;;;;;;;4.55;3.40;;;;;;;19.66;70.43;101151.13;5035503;28;103892;-49
2022/06/20 02:12:31;;;;;;;4.78;3.53;;;;;;;19.66;70.60;101140.09;5035195;28;102206;-49
2022/06/20 02:14:59;;;;;;;3.67;3.38;;;;;;;19.65;70.64;101139.28;5035993;28;101925;-49
2022/06/20 02:17:38;;;;;;;3.58;3.28;;;;;;;19.65;70.66;101133.75;5036544;28;102120;-48
2022/06/20 02:20:11;;;;;;;4.07;3.67;;;;;;;19.66;70.54;101134.56;5015096;28;104050;-48
2022/06/20 02:22:40;;;;;;;4.10;3.70;;;;;;;19.66;70.63;101134.56;5025859;28;102316;-48
2022/06/20 02:25:11;;;;;;;4.20;3.80;;;;;;;19.66;70.55;101140.09;5032353;28;102560;-49
2022/06/20 02:27:50;;;;;;;3.95;3.53;;;;;;;19.66;70.40;101134.56;5022556;28;102301;-48
2022/06/20 02:30:16;;;;;;;4.30;3.90;;;;;;;19.65;70.61;101144.78;5018764;28;105318;-48
2022/06/20 02:32:46;;;;;;;3.47;3.20;;;;;;;19.64;70.46;101143.16;5015834;28;102250;-49
2022/06/20 02:35:15;;;;;;;3.50;3.20;;;;;;;19.64;70.35;101136.81;5015603;28;102430;-49
2022/06/20 02:37:44;;;;;;;4.53;3.90;;;;;;;19.64;70.71;101136.81;5030220;28;102293;-49
2022/06/20 02:40:14;;;;;;;3.70;3.40;;;;;;;19.65;70.38;101138.44;5033417;28;104021;-49
2022/06/20 02:42:46;;;;;;;3.70;3.40;;;;;;;19.65;70.59;101138.44;5036123;28;102382;-49
2022/06/20 02:45:15;;;;;;;3.65;3.30;;;;;;;19.67;70.47;101149.97;5035626;28;102211;-49
2022/06/20 02:47:45;;;;;;;3.60;3.30;;;;;;;19.66;70.32;101142.84;5036894;28;102394;-48
2022/06/20 02:50:16;;;;;;;3.97;3.58;;;;;;;19.66;70.37;101153.88;5028706;28;104066;-48
2022/06/20 02:52:46;;;;;;;3.58;3.28;;;;;;;19.66;70.44;101156.66;5027312;28;102411;-48
2022/06/20 02:55:18;;;;;;;3.65;3.35;;;;;;;19.65;70.46;101152.25;5030339;28;102328;-49
2022/06/20 02:57:51;;;;;;;3.67;3.20;;;;;;;19.65;70.30;101155.00;5035834;28;103669;-48
2022/06/20 03:00:22;;;;;;;3.47;3.05;;;;;;;19.66;70.59;101159.41;5035001;28;104147;-47
2022/06/20 03:02:54;;;;;;;4.28;3.55;;;;;;;19.65;70.34;101155.00;5035435;28;102001;-48
2022/06/20 03:05:21;;;;;;;3.88;3.38;;;;;;;19.65;70.80;101160.53;5035261;28;102641;-49
2022/06/20 03:07:49;;;;;;;3.33;3.03;;;;;;;19.65;70.43;101158.59;5035870;28;102287;-48
2022/06/20 03:10:23;;;;;;;3.63;3.33;;;;;;;19.66;70.57;101167.69;5019821;28;104004;-48
2022/06/20 03:12:52;;;;;;;3.58;3.17;;;;;;;19.66;70.45;101167.69;5021201;28;102422;-50
2022/06/20 03:15:21;;;;;;;3.70;3.40;;;;;;;19.67;69.98;101164.59;5028523;28;101989;-49
2022/06/20 03:17:51;;;;;;;3.72;3.35;;;;;;;19.70;70.13;101167.88;5024237;28;102026;-49
2022/06/20 03:20:21;;;;;;;3.60;3.30;;;;;;;19.70;69.86;101168.66;5014151;28;103916;-48
2022/06/20 03:22:55;;;;;;;3.30;3.00;;;;;;;19.71;70.01;101175.81;5015198;28;102410;-48
2022/06/20 03:25:22;;;;;;;3.30;3.00;;;;;;;19.71;70.49;101175.81;5019380;28;102188;-48
2022/06/20 03:27:54;;;;;;;3.58;3.28;;;;;;;19.71;70.37;101186.84;5035450;28;102212;-48
2022/06/20 03:30:30;;;;;;;3.53;3.22;;;;;;;19.72;70.48;101193.19;5014297;28;104024;-48
2022/06/20 03:33:01;;;;;;;3.92;3.00;;;;;;;19.70;70.81;101179.72;5020923;28;102135;-48
2022/06/20 03:35:30;;;;;;;3.35;3.05;;;;;;;19.71;70.45;101186.84;5035244;28;102158;-49
2022/06/20 03:37:57;;;;;;;3.72;3.42;;;;;;;19.73;70.20;101194.84;5036161;28;102248;-49
2022/06/20 03:40:24;;;;;;;3.13;2.83;;;;;;;19.73;70.57;101184.59;5034629;28;102898;-49
2022/06/20 03:42:53;;;;;;;4.57;3.20;;;;;;;19.74;70.62;101179.88;5034175;28;102454;-49
2022/06/20 03:45:20;;;;;;;;;;;;;;;19.73;70.48;101190.13;5018784;28;102248;-49
2022/06/20 03:47:53;;;;;;;3.50;3.20;;;;;;;19.74;70.56;101185.41;5030764;28;102389;-49
2022/06/20 03:50:24;;;;;;;3.17;2.97;;;;;;;19.74;70.51;101191.75;5014268;28;103801;-49
2022/06/20 03:52:54;;;;;;;3.47;3.20;;;;;;;19.74;70.66;101191.75;5014808;28;102181;-49
2022/06/20 03:55:32;;;;;;;3.63;3.33;;;;;;;19.74;70.93;101186.22;5022807;28;102647;-49
2022/06/20 03:58:10;;;;;;;3.60;3.30;;;;;;;19.74;70.97;101191.75;5015781;28;102470;-49
2022/06/20 04:00:45;;;;;;;3.83;3.53;;;;;;;19.74;70.98;101185.41;5016133;28;103902;-49
2022/06/20 04:03:18;;;;;;;3.33;3.03;;;;;;;19.74;71.25;101185.41;5015544;28;102416;-49
2022/06/20 04:05:49;;;;;;;3.17;2.83;;;;;;;19.75;71.31;101196.13;5014318;28;102348;-49
2022/06/20 04:08:24;;;;;;;3.70;3.35;;;;;;;19.76;70.94;101194.97;5015095;28;102021;-48
2022/06/20 04:10:59;;;;;;;3.67;3.38;;;;;;;19.75;71.19;101193.34;5013790;28;108000;-49
2022/06/20 04:13:33;;;;;;;3.25;3.05;;;;;;;19.76;71.21;101189.47;5014330;28;102563;-49
2022/06/20 04:16:05;;;;;;;3.28;2.97;;;;;;;19.76;71.01;101189.47;5031158;28;102453;-49
2022/06/20 04:18:38;;;;;;;3.08;2.85;;;;;;;19.77;71.40;101184.78;5036182;28;102007;-48
2022/06/20 04:21:13;;;;;;;3.25;2.90;;;;;;;19.78;71.23;101184.44;5011184;28;104490;-49
2022/06/20 04:23:46;;;;;;;3.47;3.17;;;;;;;19.78;71.23;101180.88;5021714;28;102407;-49
2022/06/20 04:26:19;;;;;;;3.30;3.10;;;;;;;19.78;71.17;101178.91;5025472;28;102343;-48
2022/06/20 04:28:52;;;;;;;3.00;2.80;;;;;;;19.78;71.29;101173.38;5037424;27;102153;-48
2022/06/20 04:31:25;;;;;;;3.08;2.88;;;;;;;19.79;71.35;101171.44;5037014;28;104081;-49
2022/06/20 04:33:57;;;;;;;3.15;2.92;;;;;;;19.79;70.99;101172.25;5037104;28;102442;-49
2022/06/20 04:36:35;;;;;;;2.88;2.67;;;;;;;19.80;71.55;101164.75;5037807;28;102484;-49
2022/06/20 04:39:11;;;;;;;3.40;3.10;;;;;;;19.80;71.20;101168.38;5038222;28;102033;-47
2022/06/20 04:41:42;;;;;;;3.33;3.03;;;;;;;19.80;71.33;101157.31;5037245;28;103987;-49
2022/06/20 04:44:17;;;;;;;3.25;2.95;;;;;;;19.81;71.29;101156.19;5020038;28;102295;-47
2022/06/20 04:46:52;;;;;;;3.50;3.20;;;;;;;19.81;71.41;101153.41;5016530;28;102333;-49
2022/06/20 04:49:19;;;;;;;3.65;3.35;;;;;;;19.82;71.55;101160.56;5032236;28;102328;-48
2022/06/20 04:51:49;;;;;;;;;;;;;;;19.83;71.35;101155.84;5037445;28;103898;-48
2022/06/20 04:54:20;;;;;;;3.00;2.80;;;;;;;19.84;71.44;101154.72;5030113;28;102006;-48
2022/06/20 04:56:50;;;;;;;2.90;2.70;;;;;;;19.85;71.31;101157.16;5036715;28;102225;-49
2022/06/20 04:59:22;;;;;;;2.85;2.65;;;;;;;19.86;71.12;101164.28;5022531;28;102248;-49
2022/06/20 05:01:49;;;;;;;2.95;2.75;;;;;;;19.88;71.36;101158.47;5016476;28;103924;-49
2022/06/20 05:04:25;;;;;;;4.22;2.88;;;;;;;19.88;71.05;101159.28;5026225;28;102592;-49
2022/06/20 05:06:53;;;;;;;3.17;2.85;;;;;;;19.89;71.35;101152.59;5022639;28;102272;-49
2022/06/20 05:09:26;;;;;;;2.83;2.63;;;;;;;19.90;71.41;101154.22;5027266;28;102791;-48
2022/06/20 05:12:05;;;;;;;2.92;2.60;;;;;;;19.92;71.12;101159.44;5031716;28;103859;-48
2022/06/20 05:14:38;;;;;;;2.53;2.42;;;;;;;19.93;70.91;101155.53;5016086;28;102324;-49
2022/06/20 05:17:09;;;;;;;3.00;2.78;;;;;;;19.96;71.10;101154.06;5030670;28;102421;-49
2022/06/20 05:19:42;;;;;;;3.05;2.85;;;;;;;19.96;70.86;101148.56;5031406;28;102185;-49
2022/06/20 05:22:12;;;;;;;3.72;2.47;;;;;;;19.98;70.80;101157.31;5031427;28;103988;-49
2022/06/20 05:24:44;;;;;;;2.47;2.28;;;;;;;20.01;70.64;101153.91;5019274;28;101931;-48
2022/06/20 05:27:19;;;;;;;2.72;2.53;;;;;;;20.02;70.57;101147.25;5019654;28;102264;-49
2022/06/20 05:29:49;;;;;;;3.28;3.00;;;;;;;20.04;70.66;101136.69;5034044;28;102659;-48
2022/06/20 05:32:22;;;;;;;2.80;2.60;;;;;;;20.07;70.60;101138.81;5025900;28;103771;-49
2022/06/20 05:34:54;;;;;;;2.90;2.70;;;;;;;20.09;70.60;101147.59;5022872;28;102034;-49
2022/06/20 05:37:29;;;;;;;2.53;2.33;;;;;;;20.10;70.53;101144.50;5026246;28;102513;-49
2022/06/20 05:39:59;;;;;;;2.83;2.63;;;;;;;20.13;70.20;101137.50;5028641;28;102184;-48
2022/06/20 05:42:26;;;;;;;2.65;2.45;;;;;;;20.15;70.29;101146.28;5034652;28;103980;-49
2022/06/20 05:44:56;;;;;;;2.83;2.63;;;;;;;20.16;70.18;101132.16;5030326;28;102498;-49
2022/06/20 05:47:24;;;;;;;;;;;;;;;20.19;70.04;101136.19;5018497;28;102273;-49
2022/06/20 05:49:57;;;;;;;2.67;2.47;;;;;;;20.22;69.79;101137.50;5031038;28;102513;-49
2022/06/20 05:52:27;;;;;;;2.60;2.40;;;;;;;20.25;69.82;101134.09;5021156;28;108009;-49
2022/06/20 05:54:58;;;;;;;2.72;2.10;;;;;;;20.28;69.59;101139.78;5023104;28;102388;-49
2022/06/20 05:57:28;;;;;;;3.78;2.47;;;;;;;20.28;69.66;101139.78;5024025;28;102222;-49
2022/06/20 06:00:01;;;;;;;2.60;2.40;;;;;;;20.31;69.53;101128.06;5027006;28;102457;-49
2022/06/20 06:02:32;;;;;;;2.70;2.50;;;;;;;20.31;69.36;101128.06;5016077;28;103958;-49
2022/06/20 06:05:07;;;;;;;2.92;2.63;;;;;;;20.35;69.32;101126.25;5018142;28;102182;-49
2022/06/20 06:07:39;;;;;;;3.15;2.20;;;;;;;20.36;69.30;101119.59;5035625;28;102675;-49
2022/06/20 06:10:23;;;;;;;3.17;2.65;;;;;;;20.36;69.35;101111.28;5037799;28;102210;-48
2022/06/20 06:12:57;;;;;;;2.65;2.45;;;;;;;20.38;69.34;101114.56;5033742;28;103857;-49
2022/06/20 06:15:34;;;;;;;2.50;2.30;;;;;;;20.39;69.10;101113.41;5016711;28;102115;-48
2022/06/20 06:18:07;;;;;;;2.50;2.30;;;;;;;20.42;69.24;101100.88;5025298;28;102231;-48
2022/06/20 06:20:36;;;;;;;2.28;2.03;;;;;;;20.42;69.11;101102.84;5036522;28;102183;-49
2022/06/20 06:23:06;;;;;;;2.65;2.45;;;;;;;20.43;69.13;101098.94;5015012;28;104028;-49
2022/06/20 06:25:36;;;;;;;2.45;2.28;;;;;;;20.43;68.99;101099.75;5022887;28;102375;-49
2022/06/20 06:28:06;;;;;;;2.55;2.35;;;;;;;20.43;69.11;101096.97;5027595;28;102132;-48
2022/06/20 06:30:40;;;;;;;2.78;2.55;;;;;;;20.44;69.10;101089.50;5028281;28;102156;-49
2022/06/20 06:33:20;;;;;;;2.45;2.25;;;;;;;20.44;69.38;101086.72;5015490;28;103842;-49
2022/06/20 06:35:52;;;;;;;2.50;2.30;;;;;;;20.46;69.11;101081.69;5026258;28;102031;-49
2022/06/20 06:38:25;;;;;;;2.42;2.22;;;;;;;20.47;69.15;101086.06;5025232;28;102105;-49
2022/06/20 06:40:53;;;;;;;2.42;2.22;;;;;;;20.49;69.13;101081.03;5023591;28;102378;-49
2022/06/20 06:43:26;;;;;;;3.67;2.20;;;;;;;20.50;69.08;101068.88;5019933;28;103978;-49
2022/06/20 06:45:57;;;;;;;2.50;2.30;;;;;;;20.50;69.13;101068.88;5035492;28;102029;-49
2022/06/20 06:48:31;;;;;;;2.63;2.42;;;;;;;20.49;69.07;101067.22;5020873;28;102211;-48
2022/06/20 06:51:03;;;;;;;2.42;2.22;;;;;;;20.51;69.00;101073.25;5034171;27;102287;-49
2022/06/20 06:53:38;;;;;;;2.38;2.17;;;;;;;20.51;68.90;101065.75;5016017;28;103956;-49
2022/06/20 06:56:11;;;;;;;2.50;2.30;;;;;;;20.53;68.99;101062.69;5035379;28;102683;-49
2022/06/20 06:58:45;;;;;;;2.35;2.15;;;;;;;20.53;68.85;101059.91;5015589;28;102307;-49
2022/06/20 07:01:17;;;;;;;2.50;2.30;;;;;;;20.54;68.84;101058.75;5029350;28;102322;-48
2022/06/20 07:03:50;;;;;;;2.25;2.15;;;;;;;20.54;68.99;101048.50;5026365;28;103906;-49
2022/06/20 07:06:23;;;;;;;2.70;2.50;;;;;;;20.55;68.91;101047.34;5015550;28;101871;-49
2022/06/20 07:08:55;;;;;;;2.30;2.10;;;;;;;20.56;68.73;101037.13;5015258;28;102170;-48
2022/06/20 07:11:24;;;;;;;2.08;1.98;;;;;;;20.57;68.63;101038.75;5016226;28;102169;-49
2022/06/20 07:13:58;;;;;;;3.10;1.73;;;;;;;20.58;68.62;101035.66;5015660;28;104027;-49
2022/06/20 07:16:31;;;;;;;3.55;2.10;;;;;;;20.56;68.84;101037.94;5026532;28;102138;-49
2022/06/20 07:19:00;;;;;;;2.05;1.95;;;;;;;20.57;68.66;101033.22;5025002;28;102671;-49
2022/06/20 07:21:29;;;;;;;2.00;1.90;;;;;;;20.56;68.87;101026.88;5020718;28;102708;-48
2022/06/20 07:23:57;;;;;;;;;;;;;;;20.57;68.78;101020.19;5018190;28;103888;-49
2022/06/20 07:26:25;;;;;;;2.25;2.15;;;;;;;20.58;68.67;101021.00;5020995;28;102229;-49
2022/06/20 07:28:55;;;;;;;2.13;1.90;;;;;;;20.58;68.67;101023.78;5031676;28;102156;-49
2022/06/20 07:31:26;;;;;;;2.58;2.38;;;;;;;20.57;68.61;101016.63;5031449;28;102461;-48
2022/06/20 07:33:59;;;;;;;2.10;1.90;;;;;;;20.58;68.80;101021.81;5028431;28;107987;-49
2022/06/20 07:36:32;;;;;;;2.50;2.30;;;;;;;20.59;68.72;101017.09;5034845;28;102290;-49
2022/06/20 07:39:05;;;;;;;2.05;1.90;;;;;;;20.61;68.36;101020.34;5016306;28;102514;-49
2022/06/20 07:41:38;;;;;;;2.30;2.13;;;;;;;20.60;68.54;101015.97;5033625;28;102272;-48
2022/06/20 07:44:10;;;;;;;2.17;2.08;;;;;;;20.59;68.69;101017.09;5033639;28;103974;-48
2022/06/20 07:46:40;;;;;;;2.17;2.08;;;;;;;20.59;68.61;101011.56;5017165;28;102001;-49
2022/06/20 07:49:16;;;;;;;3.00;1.98;;;;;;;20.62;68.58;101010.91;5018948;28;101965;-49
2022/06/20 07:51:47;;;;;;;2.10;2.00;;;;;;;20.59;68.64;101000.50;5017535;28;102450;-48
2022/06/20 07:54:18;;;;;;;2.35;1.90;;;;;;;20.62;68.38;101010.91;5027947;28;104122;-49
2022/06/20 07:56:50;;;;;;;2.22;2.08;;;;;;;20.63;68.54;101001.50;5035374;28;102600;-49
2022/06/20 07:59:20;;;;;;;2.55;2.35;;;;;;;20.62;68.74;101005.38;5029784;28;102275;-49
2022/06/20 08:01:53;;;;;;;2.35;2.15;;;;;;;20.63;68.38;101009.78;5035874;28;102388;-48
2022/06/20 08:04:27;;;;;;;1.92;1.83;;;;;;;20.65;68.33;101013.00;5018589;28;103921;-56
2022/06/20 08:06:59;;;;;;;1.92;1.83;;;;;;;20.64;68.30;101016.94;5025117;28;102402;-49
2022/06/20 08:09:31;;;;;;;2.30;2.10;;;;;;;20.62;68.45;101020.00;5036557;28;102276;-49
2022/06/20 08:12:03;;;;;;;3.10;2.00;;;;;;;20.64;68.07;101014.97;5018635;28;102014;-48
2022/06/20 08:14:38;;;;;;;2.30;2.10;;;;;;;20.66;67.88;101006.31;5029683;28;103919;-48
2022/06/20 08:17:09;;;;;;;1.75;1.65;;;;;;;20.68;67.95;101006.00;5036082;28;102139;-48
2022/06/20 08:19:41;;;;;;;2.75;2.20;;;;;;;20.63;68.26;101001.50;5020648;28;104722;-48
2022/06/20 08:22:12;;;;;;;2.53;2.00;;;;;;;20.65;68.29;100999.19;5026317;28;102576;-48
2022/06/20 08:24:45;;;;;;;2.35;2.15;;;;;;;20.64;68.36;100997.56;5033954;28;108062;-48
2022/06/20 08:27:20;;;;;;;2.20;1.90;;;;;;;20.65;68.19;101004.72;5020501;28;102493;-48
2022/06/20 08:29:52;;;;;;;2.10;2.00;;;;;;;20.65;68.31;100999.19;5035069;28;102075;-48
2022/06/20 08:32:27;;;;;;;2.17;2.03;;;;;;;20.62;68.40;100995.13;5018813;28;102069;-48
2022/06/20 08:35:00;;;;;;;2.58;2.38;;;;;;;20.61;68.42;100984.41;5024690;28;103883;-47
2022/06/20 08:37:32;;;;;;;2.10;2.00;;;;;;;20.61;68.25;100987.16;5023357;28;102427;-48
2022/06/20 08:40:11;;;;;;;3.20;2.03;;;;;;;20.67;67.96;100990.56;5028596;28;103733;-48
2022/06/20 08:43:05;;;;;;;2.72;2.15;;;;;;;20.68;67.47;100979.16;5037158;28;102105;-47
2022/06/20 08:45:49;;;;;;;2.25;2.05;;;;;;;20.66;67.93;100975.09;5034587;28;103847;-49
2022/06/20 08:49:15;;;;;;;3.22;2.05;;;;;;;20.66;67.68;100984.19;5019707;28;103386;-48
2022/06/20 08:52:11;;;;;;;2.47;2.28;;;;;;;20.64;68.37;100987.31;5014937;28;102172;-48
2022/06/20 08:55:15;;;;;;;2.45;2.25;;;;;;;20.62;68.27;100977.72;5018075;28;102553;-49
2022/06/20 08:57:55;;;;;;;2.40;2.20;;;;;;;20.61;68.43;100976.91;5028875;28;103926;-48
2022/06/20 09:00:28;;;;;;;2.60;2.35;;;;;;;20.63;68.27;100979.38;5034740;28;102400;-49
2022/06/20 09:03:21;;;;;;;2.25;2.10;;;;;;;20.66;67.89;100981.44;5029779;28;102433;-48
2022/06/20 09:06:05;;;;;;;2.13;2.00;;;;;;;20.64;68.14;100970.72;5019711;28;102409;-48
2022/06/20 09:09:05;;;;;;;2.70;2.50;;;;;;;20.65;67.92;100966.00;5033650;27;103816;-47
2022/06/20 09:11:56;;;;;;;2.17;2.08;;;;;;;20.64;68.08;100964.38;5035280;27;102430;-51
2022/06/20 09:14:43;;;;;;;2.28;2.15;;;;;;;20.67;67.50;100952.66;5015671;28;102365;-49
2022/06/20 09:17:22;;;;;;;2.97;2.42;;;;;;;20.66;67.98;100950.22;5023003;28;104063;-49
2022/06/20 09:20:01;;;;;;;2.30;2.10;;;;;;;20.65;67.81;100949.41;5018419;28;104026;-49
2022/06/20 09:22:41;;;;;;;2.55;2.35;;;;;;;20.62;68.16;100950.88;5028241;28;102441;-48
2022/06/20 09:25:21;;;;;;;2.88;2.50;;;;;;;20.62;68.28;100939.81;5023257;28;102517;-49
2022/06/20 09:27:55;;;;;;;2.47;2.28;;;;;;;20.64;67.89;100945.03;5022147;28;102218;-50
2022/06/20 09:30:32;;;;;;;2.47;2.38;;;;;;;20.65;68.08;100952.16;5021654;28;103862;-49
2022/06/20 09:33:17;;;;;;;2.60;2.40;;;;;;;20.67;67.50;100946.31;5024999;28;103669;-49
2022/06/20 09:36:17;;;;;;;2.50;2.30;;;;;;;20.68;67.22;100937.69;5026743;28;102290;-48
2022/06/20 09:38:59;;;;;;;2.78;2.58;;;;;;;20.66;67.55;100934.44;5037257;28;102467;-48
2022/06/20 09:41:33;;;;;;;4.50;2.40;;;;;;;20.66;67.30;100934.44;5016436;28;104161;-48
2022/06/20 09:44:15;;;;;;;2.83;2.63;;;;;;;20.66;67.21;100934.44;5016936;28;102116;-49
2022/06/20 09:46:55;;;;;;;2.50;2.30;;;;;;;20.64;67.82;100929.25;5016576;28;102163;-49
2022/06/20 09:49:32;;;;;;;2.60;2.40;;;;;;;20.63;67.76;100921.28;5017066;28;102594;-49
2022/06/20 09:52:07;;;;;;;2.50;2.30;;;;;;;20.63;67.70;100929.59;5020925;28;104007;-48
2022/06/20 09:54:46;;;;;;;2.58;2.10;;;;;;;20.65;67.39;100921.75;5037105;28;102302;-49
2022/06/20 09:57:27;;;;;;;3.85;2.35;;;;;;;20.66;67.33;100915.06;5032332;28;102469;-49
2022/06/20 09:59:59;;;;;;;2.72;2.53;;;;;;;20.68;67.29;100917.53;5037015;28;102240;-49
2022/06/20 10:02:37;;;;;;;2.50;2.30;;;;;;;20.67;67.14;100916.72;5036278;28;103894;-48
2022/06/20 10:05:11;;;;;;;2.50;2.30;;;;;;;20.66;67.15;100912.31;5036796;28;102534;-49
2022/06/20 10:07:56;;;;;;;4.25;2.47;;;;;;;20.65;67.61;100907.94;5036343;28;102233;-50
2022/06/20 10:10:32;;;;;;;2.47;2.28;;;;;;;20.58;67.94;100907.66;5036703;28;102376;-49
2022/06/20 10:13:10;;;;;;;2.65;2.45;;;;;;;20.55;68.07;100900.00;5035116;28;104400;-49
2022/06/20 10:15:47;;;;;;;2.80;2.53;;;;;;;20.54;68.26;100899.22;5035915;28;102173;-49
2022/06/20 10:18:26;;;;;;;2.72;2.50;;;;;;;20.56;68.04;100891.41;5036135;28;102521;-49
2022/06/20 10:21:00;;;;;;;4.07;2.60;;;;;;;20.58;68.12;100894.63;5036920;28;102088;-49
2022/06/20 10:23:50;;;;;;;3.08;2.78;;;;;;;20.53;68.15;100896.78;5035853;28;103950;-48
2022/06/20 10:26:42;;;;;;;4.72;2.70;;;;;;;20.56;67.95;100890.59;5023701;28;102206;-49
2022/06/20 10:29:20;;;;;;;4.72;2.70;;;;;;;20.56;68.15;100890.59;5034968;28;101969;-49
2022/06/20 10:31:58;;;;;;;2.53;2.33;;;;;;;20.54;68.13;100884.56;5037111;28;101899;-48
2022/06/20 10:34:36;;;;;;;3.03;2.67;;;;;;;20.53;68.25;100875.47;5029288;28;104012;-48
2022/06/20 10:37:15;;;;;;;3.65;3.00;;;;;;;20.50;68.19;100886.41;5016302;28;102608;-49
2022/06/20 10:39:48;;;;;;;3.13;2.60;;;;;;;20.49;68.20;100882.00;5015801;28;101965;-49
2022/06/20 10:42:33;;;;;;;2.80;2.60;;;;;;;20.48;68.00;100883.91;5017474;28;102270;-49
2022/06/20 10:45:23;;;;;;;3.22;2.92;;;;;;;20.47;68.28;100878.72;5013745;28;108040;-48
2022/06/20 10:48:28;;;;;;;3.47;3.15;;;;;;;20.46;68.10;100869.63;5017104;28;102083;-49
2022/06/20 10:51:02;;;;;;;2.78;2.58;;;;;;;20.45;68.41;100875.47;5035712;28;102185;-49
2022/06/20 10:53:38;;;;;;;3.00;2.80;;;;;;;20.47;68.22;100854.66;5019294;28;102139;-48
2022/06/20 10:56:14;;;;;;;2.95;2.75;;;;;;;20.46;68.31;100863.31;5024013;28;103875;-49
2022/06/20 10:58:55;;;;;;;2.70;2.50;;;;;;;20.45;68.22;100869.94;5016265;28;102124;-48
2022/06/20 11:01:30;;;;;;;3.33;2.90;;;;;;;20.44;68.27;100854.53;5014947;28;102389;-48
2022/06/20 11:04:17;;;;;;;2.92;2.72;;;;;;;20.43;68.28;100863.97;5034450;28;101911;-49
2022/06/20 11:06:58;;;;;;;2.70;2.50;;;;;;;20.42;68.47;100862.34;5035027;28;108095;-49
2022/06/20 11:09:33;;;;;;;3.00;2.80;;;;;;;20.42;68.30;100856.81;5035874;28;102159;-49
2022/06/20 11:12:05;;;;;;;3.10;2.90;;;;;;;20.40;68.25;100855.19;5035373;28;102198;-49
2022/06/20 11:14:40;;;;;;;3.00;2.80;;;;;;;20.40;68.41;100855.19;5036721;28;102214;-49
2022/06/20 11:17:17;;;;;;;3.13;2.92;;;;;;;20.38;68.18;100854.72;5025687;28;103854;-49
2022/06/20 11:19:53;;;;;;;3.20;2.90;;;;;;;20.41;68.20;100853.22;5023423;28;102454;-49
2022/06/20 11:22:30;;;;;;;3.85;2.88;;;;;;;20.42;68.23;100854.06;5035518;28;102021;-49
2022/06/20 11:25:10;;;;;;;2.65;2.40;;;;;;;20.39;68.19;100842.50;5036283;28;102188;-49
2022/06/20 11:28:00;;;;;;;3.00;2.80;;;;;;;20.39;68.35;100837.00;5035238;28;103946;-49
2022/06/20 11:30:37;;;;;;;3.00;2.80;;;;;;;20.39;68.24;100839.75;5031790;28;102131;-48
2022/06/20 11:33:21;;;;;;;3.25;2.75;;;;;;;20.40;68.30;100837.78;5034778;28;102173;-49
2022/06/20 11:35:56;;;;;;;2.97;2.78;;;;;;;20.38;68.06;100843.66;5036071;28;102490;-49
2022/06/20 11:38:55;;;;;;;3.05;2.85;;;;;;;20.39;68.43;100834.22;5036962;27;103922;-48
2022/06/20 11:41:32;;;;;;;2.88;2.67;;;;;;;20.38;68.20;100835.38;4983408;28;102474;-48
2022/06/20 11:44:49;;;;;;;3.10;2.90;;;;;;;20.38;68.49;100845.63;5017778;28;102635;-48
2022/06/20 11:47:42;;;;;;;2.90;2.70;;;;;;;20.37;68.17;100838.47;4957209;28;102464;-49
2022/06/20 11:50:30;;;;;;;4.07;2.80;;;;;;;20.36;68.40;100825.78;5016911;28;108133;-48
2022/06/20 11:53:08;;;;;;;2.92;2.72;;;;;;;20.35;68.22;100830.50;5034583;28;102189;-49